sensor_id;sensor_type;location;lat;lon;timestamp;P1;durP1;ratioP1;P2;durP2;ratioP2
32321;SDS011;61553;48.994;8.940;2023-12-07T00:01:18;33.00;;;18.38;;
32321;SDS011;61553;48.994;8.940;2023-12-07T00:03:44;32.50;;;17.70;;
32321;SDS011;61553;48.994;8.940;2023-12-07T00:06:09;22.60;;;12.30;;
32321;SDS011;61553;48.994;8.940;2023-12-07T00:08:35;49.30;;;23.10;;
32321;SDS011;61553;48.994;8.940;2023-12-07T00:11:01;81.30;;;39.08;;
32321;SDS011;61553;48.994;8.940;2023-12-07T00:13:27;59.15;;;30.05;;
32321;SDS011;61553;48.994;8.940;2023-12-07T00:15:52;45.13;;;22.02;;
32321;SDS011;61553;48.994;8.940;2023-12-07T00:18:18;32.88;;;17.25;;
32321;SDS011;61553;48.994;8.940;2023-12-07T00:20:44;30.45;;;17.45;;
32321;SDS011;61553;48.994;8.940;2023-12-07T00:23:10;30.05;;;16.90;;
32321;SDS011;61553;48.994;8.940;2023-12-07T00:25:36;30.45;;;16.40;;
32321;SDS011;61553;48.994;8.940;2023-12-07T00:28:01;25.85;;;14.73;;
32321;SDS011;61553;48.994;8.940;2023-12-07T00:30:28;29.90;;;15.15;;
32321;SDS011;61553;48.994;8.940;2023-12-07T00:32:53;25.13;;;14.70;;
32321;SDS011;61553;48.994;8.940;2023-12-07T00:35:19;23.38;;;12.93;;
32321;SDS011;61553;48.994;8.940;2023-12-07T00:37:47;24.02;;;12.65;;
32321;SDS011;61553;48.994;8.940;2023-12-07T00:40:13;21.83;;;12.55;;
32321;SDS011;61553;48.994;8.940;2023-12-07T00:42:39;23.40;;;12.73;;
32321;SDS011;61553;48.994;8.940;2023-12-07T00:45:05;26.77;;;12.68;;
32321;SDS011;61553;48.994;8.940;2023-12-07T00:47:30;22.55;;;12.70;;
32321;SDS011;61553;48.994;8.940;2023-12-07T00:49:56;21.33;;;12.32;;
32321;SDS011;61553;48.994;8.940;2023-12-07T00:52:22;25.30;;;12.82;;
32321;SDS011;61553;48.994;8.940;2023-12-07T00:54:47;22.70;;;12.30;;
32321;SDS011;61553;48.994;8.940;2023-12-07T00:57:13;23.00;;;12.70;;
32321;SDS011;61553;48.994;8.940;2023-12-07T00:59:38;22.40;;;12.68;;
32321;SDS011;61553;48.994;8.940;2023-12-07T01:02:04;25.52;;;13.63;;
32321;SDS011;61553;48.994;8.940;2023-12-07T01:04:31;25.58;;;13.38;;
32321;SDS011;61553;48.994;8.940;2023-12-07T01:06:57;22.52;;;12.68;;
32321;SDS011;61553;48.994;8.940;2023-12-07T01:09:23;23.00;;;12.45;;
32321;SDS011;61553;48.994;8.940;2023-12-07T01:11:49;23.98;;;11.82;;
32321;SDS011;61553;48.994;8.940;2023-12-07T01:14:15;22.60;;;11.48;;
32321;SDS011;61553;48.994;8.940;2023-12-07T01:16:41;22.23;;;11.73;;
32321;SDS011;61553;48.994;8.940;2023-12-07T01:19:08;21.50;;;12.18;;
32321;SDS011;61553;48.994;8.940;2023-12-07T01:21:33;23.05;;;12.18;;
32321;SDS011;61553;48.994;8.940;2023-12-07T01:23:59;18.15;;;10.48;;
32321;SDS011;61553;48.994;8.940;2023-12-07T01:26:25;18.92;;;11.23;;
32321;SDS011;61553;48.994;8.940;2023-12-07T01:28:50;22.85;;;12.60;;
32321;SDS011;61553;48.994;8.940;2023-12-07T01:31:16;21.33;;;10.98;;
32321;SDS011;61553;48.994;8.940;2023-12-07T01:33:42;20.52;;;11.80;;
32321;SDS011;61553;48.994;8.940;2023-12-07T01:36:08;20.10;;;11.43;;
32321;SDS011;61553;48.994;8.940;2023-12-07T01:38:35;21.65;;;12.13;;
32321;SDS011;61553;48.994;8.940;2023-12-07T01:41:00;23.40;;;11.57;;
32321;SDS011;61553;48.994;8.940;2023-12-07T01:43:26;23.77;;;12.25;;
32321;SDS011;61553;48.994;8.940;2023-12-07T01:45:52;23.60;;;13.18;;
32321;SDS011;61553;48.994;8.940;2023-12-07T01:48:21;22.27;;;12.60;;
32321;SDS011;61553;48.994;8.940;2023-12-07T01:50:49;24.45;;;12.40;;
32321;SDS011;61553;48.994;8.940;2023-12-07T01:53:16;19.75;;;10.63;;
32321;SDS011;61553;48.994;8.940;2023-12-07T01:55:42;21.83;;;12.38;;
32321;SDS011;61553;48.994;8.940;2023-12-07T01:58:08;21.90;;;12.07;;
32321;SDS011;61553;48.994;8.940;2023-12-07T02:00:35;22.10;;;11.77;;
32321;SDS011;61553;48.994;8.940;2023-12-07T02:03:03;21.20;;;11.30;;
32321;SDS011;61553;48.994;8.940;2023-12-07T02:05:31;19.63;;;10.80;;
32321;SDS011;61553;48.994;8.940;2023-12-07T02:07:57;20.30;;;11.30;;
32321;SDS011;61553;48.994;8.940;2023-12-07T02:10:23;21.27;;;11.18;;
32321;SDS011;61553;48.994;8.940;2023-12-07T02:12:49;21.33;;;11.52;;
32321;SDS011;61553;48.994;8.940;2023-12-07T02:15:16;19.80;;;10.88;;
32321;SDS011;61553;48.994;8.940;2023-12-07T02:20:28;18.60;;;10.40;;
32321;SDS011;61553;48.994;8.940;2023-12-07T02:23:16;18.17;;;9.38;;
32321;SDS011;61553;48.994;8.940;2023-12-07T02:28:19;19.75;;;10.60;;
32321;SDS011;61553;48.994;8.940;2023-12-07T02:30:44;17.08;;;10.02;;
32321;SDS011;61553;48.994;8.940;2023-12-07T02:33:10;17.27;;;10.23;;
32321;SDS011;61553;48.994;8.940;2023-12-07T02:42:20;22.08;;;9.60;;
32321;SDS011;61553;48.994;8.940;2023-12-07T02:44:48;17.17;;;9.82;;
32321;SDS011;61553;48.994;8.940;2023-12-07T02:47:16;20.23;;;9.52;;
32321;SDS011;61553;48.994;8.940;2023-12-07T02:49:42;19.08;;;9.55;;
32321;SDS011;61553;48.994;8.940;2023-12-07T02:52:08;16.50;;;9.23;;
32321;SDS011;61553;48.994;8.940;2023-12-07T02:54:33;18.77;;;9.85;;
32321;SDS011;61553;48.994;8.940;2023-12-07T02:56:59;19.40;;;8.65;;
32321;SDS011;61553;48.994;8.940;2023-12-07T02:59:24;16.35;;;9.52;;
32321;SDS011;61553;48.994;8.940;2023-12-07T03:01:50;16.83;;;9.00;;
32321;SDS011;61553;48.994;8.940;2023-12-07T03:04:16;18.42;;;9.07;;
32321;SDS011;61553;48.994;8.940;2023-12-07T03:06:41;23.65;;;10.23;;
32321;SDS011;61553;48.994;8.940;2023-12-07T03:09:07;17.63;;;9.15;;
32321;SDS011;61553;48.994;8.940;2023-12-07T03:11:33;17.25;;;9.40;;
32321;SDS011;61553;48.994;8.940;2023-12-07T03:13:58;20.90;;;9.55;;
32321;SDS011;61553;48.994;8.940;2023-12-07T03:16:24;18.40;;;9.85;;
32321;SDS011;61553;48.994;8.940;2023-12-07T03:18:50;18.90;;;9.30;;
32321;SDS011;61553;48.994;8.940;2023-12-07T03:21:15;17.02;;;9.45;;
32321;SDS011;61553;48.994;8.940;2023-12-07T03:23:41;18.48;;;9.20;;
32321;SDS011;61553;48.994;8.940;2023-12-07T03:26:07;18.63;;;9.50;;
32321;SDS011;61553;48.994;8.940;2023-12-07T03:28:32;24.25;;;12.18;;
32321;SDS011;61553;48.994;8.940;2023-12-07T03:30:58;18.67;;;9.68;;
32321;SDS011;61553;48.994;8.940;2023-12-07T03:33:23;17.10;;;9.23;;
32321;SDS011;61553;48.994;8.940;2023-12-07T03:35:49;21.05;;;10.35;;
32321;SDS011;61553;48.994;8.940;2023-12-07T03:38:15;21.65;;;11.98;;
32321;SDS011;61553;48.994;8.940;2023-12-07T03:40:40;20.63;;;9.80;;
32321;SDS011;61553;48.994;8.940;2023-12-07T03:43:06;17.48;;;9.30;;
32321;SDS011;61553;48.994;8.940;2023-12-07T03:45:31;16.48;;;8.30;;
32321;SDS011;61553;48.994;8.940;2023-12-07T03:47:57;17.58;;;8.50;;
32321;SDS011;61553;48.994;8.940;2023-12-07T03:50:23;18.10;;;9.27;;
32321;SDS011;61553;48.994;8.940;2023-12-07T03:52:48;20.40;;;10.77;;
32321;SDS011;61553;48.994;8.940;2023-12-07T03:55:14;18.52;;;10.05;;
32321;SDS011;61553;48.994;8.940;2023-12-07T03:57:39;15.95;;;8.45;;
32321;SDS011;61553;48.994;8.940;2023-12-07T04:00:06;20.58;;;8.88;;
32321;SDS011;61553;48.994;8.940;2023-12-07T04:02:33;15.57;;;8.25;;
32321;SDS011;61553;48.994;8.940;2023-12-07T04:04:59;18.05;;;9.98;;
32321;SDS011;61553;48.994;8.940;2023-12-07T04:07:27;17.88;;;9.45;;
32321;SDS011;61553;48.994;8.940;2023-12-07T04:09:54;15.45;;;8.38;;
32321;SDS011;61553;48.994;8.940;2023-12-07T04:12:21;24.67;;;9.82;;
32321;SDS011;61553;48.994;8.940;2023-12-07T04:14:48;16.45;;;9.25;;
32321;SDS011;61553;48.994;8.940;2023-12-07T04:17:14;15.90;;;8.60;;
32321;SDS011;61553;48.994;8.940;2023-12-07T04:19:40;19.35;;;9.02;;
32321;SDS011;61553;48.994;8.940;2023-12-07T04:22:06;19.10;;;8.95;;
32321;SDS011;61553;48.994;8.940;2023-12-07T04:24:32;19.75;;;8.73;;
32321;SDS011;61553;48.994;8.940;2023-12-07T04:26:57;16.45;;;8.43;;
32321;SDS011;61553;48.994;8.940;2023-12-07T04:29:23;17.08;;;8.23;;
32321;SDS011;61553;48.994;8.940;2023-12-07T04:31:48;19.27;;;8.90;;
32321;SDS011;61553;48.994;8.940;2023-12-07T04:34:14;19.95;;;9.63;;
32321;SDS011;61553;48.994;8.940;2023-12-07T04:36:39;15.93;;;8.73;;
32321;SDS011;61553;48.994;8.940;2023-12-07T04:39:05;17.95;;;8.60;;
32321;SDS011;61553;48.994;8.940;2023-12-07T04:41:31;17.20;;;8.82;;
32321;SDS011;61553;48.994;8.940;2023-12-07T04:43:57;25.90;;;12.65;;
32321;SDS011;61553;48.994;8.940;2023-12-07T04:46:22;40.03;;;17.20;;
32321;SDS011;61553;48.994;8.940;2023-12-07T04:48:48;29.13;;;14.20;;
32321;SDS011;61553;48.994;8.940;2023-12-07T04:51:13;24.98;;;11.57;;
32321;SDS011;61553;48.994;8.940;2023-12-07T04:53:39;24.90;;;12.82;;
32321;SDS011;61553;48.994;8.940;2023-12-07T04:56:05;23.83;;;12.35;;
32321;SDS011;61553;48.994;8.940;2023-12-07T04:58:31;33.17;;;15.57;;
32321;SDS011;61553;48.994;8.940;2023-12-07T05:00:57;39.75;;;17.42;;
32321;SDS011;61553;48.994;8.940;2023-12-07T05:03:22;35.80;;;15.93;;
32321;SDS011;61553;48.994;8.940;2023-12-07T05:05:48;37.38;;;15.27;;
32321;SDS011;61553;48.994;8.940;2023-12-07T05:08:15;30.15;;;15.18;;
32321;SDS011;61553;48.994;8.940;2023-12-07T05:10:40;29.25;;;13.50;;
32321;SDS011;61553;48.994;8.940;2023-12-07T05:13:06;30.08;;;13.15;;
32321;SDS011;61553;48.994;8.940;2023-12-07T05:15:31;22.30;;;10.85;;
32321;SDS011;61553;48.994;8.940;2023-12-07T05:17:57;25.75;;;11.93;;
32321;SDS011;61553;48.994;8.940;2023-12-07T05:20:23;24.77;;;11.52;;
32321;SDS011;61553;48.994;8.940;2023-12-07T05:22:49;24.38;;;10.93;;
32321;SDS011;61553;48.994;8.940;2023-12-07T05:25:15;33.05;;;13.20;;
32321;SDS011;61553;48.994;8.940;2023-12-07T05:27:41;27.42;;;12.82;;
32321;SDS011;61553;48.994;8.940;2023-12-07T05:30:06;31.63;;;13.38;;
32321;SDS011;61553;48.994;8.940;2023-12-07T05:32:32;37.42;;;12.60;;
32321;SDS011;61553;48.994;8.940;2023-12-07T05:34:58;21.73;;;11.23;;
32321;SDS011;61553;48.994;8.940;2023-12-07T05:37:24;25.13;;;11.77;;
32321;SDS011;61553;48.994;8.940;2023-12-07T05:39:49;27.90;;;12.00;;
32321;SDS011;61553;48.994;8.940;2023-12-07T05:42:15;31.77;;;13.52;;
32321;SDS011;61553;48.994;8.940;2023-12-07T05:44:41;34.50;;;14.50;;
32321;SDS011;61553;48.994;8.940;2023-12-07T05:47:06;37.17;;;14.77;;
32321;SDS011;61553;48.994;8.940;2023-12-07T05:49:33;37.60;;;15.18;;
32321;SDS011;61553;48.994;8.940;2023-12-07T05:51:58;36.42;;;14.77;;
32321;SDS011;61553;48.994;8.940;2023-12-07T05:54:24;29.88;;;12.85;;
32321;SDS011;61553;48.994;8.940;2023-12-07T05:56:50;35.10;;;15.52;;
32321;SDS011;61553;48.994;8.940;2023-12-07T05:59:15;35.28;;;14.15;;
32321;SDS011;61553;48.994;8.940;2023-12-07T06:01:41;30.75;;;12.70;;
32321;SDS011;61553;48.994;8.940;2023-12-07T06:04:08;40.63;;;16.00;;
32321;SDS011;61553;48.994;8.940;2023-12-07T06:06:34;38.10;;;15.20;;
32321;SDS011;61553;48.994;8.940;2023-12-07T06:09:00;29.45;;;13.10;;
32321;SDS011;61553;48.994;8.940;2023-12-07T06:11:25;32.13;;;13.60;;
32321;SDS011;61553;48.994;8.940;2023-12-07T06:13:51;35.95;;;16.48;;
32321;SDS011;61553;48.994;8.940;2023-12-07T06:16:17;45.20;;;19.55;;
32321;SDS011;61553;48.994;8.940;2023-12-07T06:18:43;36.53;;;16.85;;
32321;SDS011;61553;48.994;8.940;2023-12-07T06:21:10;32.67;;;16.20;;
32321;SDS011;61553;48.994;8.940;2023-12-07T06:23:35;32.15;;;15.48;;
32321;SDS011;61553;48.994;8.940;2023-12-07T06:26:01;31.58;;;14.98;;
32321;SDS011;61553;48.994;8.940;2023-12-07T06:28:27;85.30;;;28.88;;
32321;SDS011;61553;48.994;8.940;2023-12-07T06:30:53;89.93;;;31.00;;
32321;SDS011;61553;48.994;8.940;2023-12-07T06:33:19;73.22;;;21.67;;
32321;SDS011;61553;48.994;8.940;2023-12-07T06:35:45;72.80;;;18.70;;
32321;SDS011;61553;48.994;8.940;2023-12-07T06:38:12;72.05;;;21.00;;
32321;SDS011;61553;48.994;8.940;2023-12-07T06:40:37;31.85;;;15.88;;
32321;SDS011;61553;48.994;8.940;2023-12-07T06:43:03;32.35;;;17.50;;
32321;SDS011;61553;48.994;8.940;2023-12-07T06:45:28;40.47;;;17.58;;
32321;SDS011;61553;48.994;8.940;2023-12-07T06:47:54;47.47;;;17.40;;
32321;SDS011;61553;48.994;8.940;2023-12-07T06:50:20;43.35;;;19.17;;
32321;SDS011;61553;48.994;8.940;2023-12-07T06:52:46;44.70;;;22.02;;
32321;SDS011;61553;48.994;8.940;2023-12-07T06:55:11;42.65;;;19.85;;
32321;SDS011;61553;48.994;8.940;2023-12-07T06:57:39;40.03;;;17.92;;
32321;SDS011;61553;48.994;8.940;2023-12-07T07:00:05;40.25;;;19.17;;
32321;SDS011;61553;48.994;8.940;2023-12-07T07:02:35;56.67;;;19.58;;
32321;SDS011;61553;48.994;8.940;2023-12-07T07:05:02;35.97;;;16.92;;
32321;SDS011;61553;48.994;8.940;2023-12-07T07:07:28;40.53;;;17.05;;
32321;SDS011;61553;48.994;8.940;2023-12-07T07:09:56;34.38;;;15.15;;
32321;SDS011;61553;48.994;8.940;2023-12-07T07:12:22;58.90;;;17.00;;
32321;SDS011;61553;48.994;8.940;2023-12-07T07:14:48;35.03;;;16.30;;
32321;SDS011;61553;48.994;8.940;2023-12-07T07:17:14;37.13;;;15.68;;
32321;SDS011;61553;48.994;8.940;2023-12-07T07:19:40;55.13;;;17.02;;
32321;SDS011;61553;48.994;8.940;2023-12-07T07:22:06;47.83;;;18.35;;
32321;SDS011;61553;48.994;8.940;2023-12-07T07:24:34;53.40;;;21.90;;
32321;SDS011;61553;48.994;8.940;2023-12-07T07:26:59;35.72;;;17.20;;
32321;SDS011;61553;48.994;8.940;2023-12-07T07:29:25;50.78;;;17.73;;
32321;SDS011;61553;48.994;8.940;2023-12-07T07:31:51;41.88;;;19.17;;
32321;SDS011;61553;48.994;8.940;2023-12-07T07:34:20;51.30;;;19.42;;
32321;SDS011;61553;48.994;8.940;2023-12-07T07:36:46;35.95;;;18.55;;
32321;SDS011;61553;48.994;8.940;2023-12-07T07:39:12;34.72;;;17.27;;
32321;SDS011;61553;48.994;8.940;2023-12-07T07:41:39;38.63;;;16.50;;
32321;SDS011;61553;48.994;8.940;2023-12-07T07:44:04;45.22;;;20.52;;
32321;SDS011;61553;48.994;8.940;2023-12-07T07:46:30;106.78;;;30.13;;
32321;SDS011;61553;48.994;8.940;2023-12-07T07:48:56;91.03;;;25.75;;
32321;SDS011;61553;48.994;8.940;2023-12-07T07:51:21;48.58;;;20.45;;
32321;SDS011;61553;48.994;8.940;2023-12-07T07:53:47;57.85;;;23.55;;
32321;SDS011;61553;48.994;8.940;2023-12-07T07:56:12;60.85;;;23.30;;
32321;SDS011;61553;48.994;8.940;2023-12-07T07:58:38;48.47;;;21.50;;
32321;SDS011;61553;48.994;8.940;2023-12-07T08:01:04;63.75;;;24.27;;
32321;SDS011;61553;48.994;8.940;2023-12-07T08:03:30;55.85;;;23.60;;
32321;SDS011;61553;48.994;8.940;2023-12-07T08:05:55;56.13;;;22.10;;
32321;SDS011;61553;48.994;8.940;2023-12-07T08:08:21;46.88;;;20.25;;
32321;SDS011;61553;48.994;8.940;2023-12-07T08:10:46;38.00;;;18.75;;
32321;SDS011;61553;48.994;8.940;2023-12-07T08:13:12;37.53;;;17.83;;
32321;SDS011;61553;48.994;8.940;2023-12-07T08:15:38;43.08;;;20.08;;
32321;SDS011;61553;48.994;8.940;2023-12-07T08:18:04;34.85;;;17.98;;
32321;SDS011;61553;48.994;8.940;2023-12-07T08:20:30;33.88;;;17.42;;
32321;SDS011;61553;48.994;8.940;2023-12-07T08:22:56;38.80;;;20.17;;
32321;SDS011;61553;48.994;8.940;2023-12-07T08:25:21;39.22;;;19.48;;
32321;SDS011;61553;48.994;8.940;2023-12-07T08:27:47;41.75;;;22.05;;
32321;SDS011;61553;48.994;8.940;2023-12-07T08:30:13;41.42;;;23.35;;
32321;SDS011;61553;48.994;8.940;2023-12-07T08:32:39;55.17;;;27.50;;
32321;SDS011;61553;48.994;8.940;2023-12-07T08:35:05;64.70;;;34.50;;
32321;SDS011;61553;48.994;8.940;2023-12-07T08:37:32;82.90;;;40.50;;
32321;SDS011;61553;48.994;8.940;2023-12-07T08:45:46;51.80;;;23.23;;
32321;SDS011;61553;48.994;8.940;2023-12-07T08:48:11;45.00;;;24.17;;
32321;SDS011;61553;48.994;8.940;2023-12-07T08:50:37;49.45;;;24.90;;
32321;SDS011;61553;48.994;8.940;2023-12-07T08:53:02;59.20;;;28.98;;
32321;SDS011;61553;48.994;8.940;2023-12-07T08:55:28;39.92;;;20.02;;
32321;SDS011;61553;48.994;8.940;2023-12-07T08:57:54;31.80;;;17.15;;
32321;SDS011;61553;48.994;8.940;2023-12-07T09:00:20;29.38;;;16.42;;
32321;SDS011;61553;48.994;8.940;2023-12-07T09:02:49;29.80;;;16.00;;
32321;SDS011;61553;48.994;8.940;2023-12-07T09:05:14;85.05;;;27.90;;
32321;SDS011;61553;48.994;8.940;2023-12-07T09:07:40;43.88;;;20.83;;
32321;SDS011;61553;48.994;8.940;2023-12-07T09:10:06;51.92;;;26.50;;
32321;SDS011;61553;48.994;8.940;2023-12-07T09:12:33;433.48;;;63.00;;
32321;SDS011;61553;48.994;8.940;2023-12-07T09:15:00;55.85;;;31.15;;
32321;SDS011;61553;48.994;8.940;2023-12-07T09:17:27;56.30;;;29.45;;
32321;SDS011;61553;48.994;8.940;2023-12-07T09:19:53;44.85;;;24.50;;
32321;SDS011;61553;48.994;8.940;2023-12-07T09:22:19;30.10;;;16.52;;
32321;SDS011;61553;48.994;8.940;2023-12-07T09:24:45;33.03;;;17.88;;
32321;SDS011;61553;48.994;8.940;2023-12-07T09:27:11;21.20;;;12.98;;
32321;SDS011;61553;48.994;8.940;2023-12-07T09:29:38;16.58;;;11.02;;
32321;SDS011;61553;48.994;8.940;2023-12-07T09:32:04;18.02;;;11.15;;
32321;SDS011;61553;48.994;8.940;2023-12-07T09:34:31;15.70;;;10.10;;
32321;SDS011;61553;48.994;8.940;2023-12-07T09:37:06;14.13;;;8.95;;
32321;SDS011;61553;48.994;8.940;2023-12-07T09:39:36;13.48;;;8.57;;
32321;SDS011;61553;48.994;8.940;2023-12-07T09:42:02;13.77;;;9.18;;
32321;SDS011;61553;48.994;8.940;2023-12-07T09:44:28;16.73;;;10.15;;
32321;SDS011;61553;48.994;8.940;2023-12-07T09:46:54;15.85;;;8.88;;
32321;SDS011;61553;48.994;8.940;2023-12-07T09:49:20;15.82;;;8.93;;
32321;SDS011;61553;48.994;8.940;2023-12-07T09:51:46;12.93;;;7.47;;
32321;SDS011;61553;48.994;8.940;2023-12-07T09:54:12;14.50;;;9.35;;
32321;SDS011;61553;48.994;8.940;2023-12-07T09:56:38;13.90;;;8.70;;
32321;SDS011;61553;48.994;8.940;2023-12-07T09:59:04;13.45;;;8.82;;
32321;SDS011;61553;48.994;8.940;2023-12-07T10:01:32;12.35;;;8.52;;
32321;SDS011;61553;48.994;8.940;2023-12-07T10:04:15;16.13;;;9.25;;
32321;SDS011;61553;48.994;8.940;2023-12-07T10:06:45;15.07;;;8.90;;
32321;SDS011;61553;48.994;8.940;2023-12-07T10:09:12;13.65;;;8.25;;
32321;SDS011;61553;48.994;8.940;2023-12-07T10:11:38;14.05;;;8.55;;
32321;SDS011;61553;48.994;8.940;2023-12-07T10:14:07;13.70;;;9.55;;
32321;SDS011;61553;48.994;8.940;2023-12-07T10:16:34;14.82;;;9.35;;
32321;SDS011;61553;48.994;8.940;2023-12-07T10:19:12;15.77;;;9.38;;
32321;SDS011;61553;48.994;8.940;2023-12-07T10:21:46;13.40;;;8.93;;
32321;SDS011;61553;48.994;8.940;2023-12-07T10:24:12;17.30;;;9.80;;
32321;SDS011;61553;48.994;8.940;2023-12-07T10:26:38;14.73;;;9.02;;
32321;SDS011;61553;48.994;8.940;2023-12-07T10:29:05;13.43;;;9.52;;
32321;SDS011;61553;48.994;8.940;2023-12-07T10:31:31;12.95;;;9.07;;
32321;SDS011;61553;48.994;8.940;2023-12-07T10:33:58;14.00;;;9.30;;
32321;SDS011;61553;48.994;8.940;2023-12-07T10:36:25;12.70;;;9.30;;
32321;SDS011;61553;48.994;8.940;2023-12-07T10:38:51;11.65;;;8.05;;
32321;SDS011;61553;48.994;8.940;2023-12-07T10:41:18;15.80;;;8.85;;
32321;SDS011;61553;48.994;8.940;2023-12-07T10:43:51;13.68;;;8.90;;
32321;SDS011;61553;48.994;8.940;2023-12-07T10:46:19;13.65;;;8.68;;
32321;SDS011;61553;48.994;8.940;2023-12-07T10:48:47;13.02;;;8.18;;
32321;SDS011;61553;48.994;8.940;2023-12-07T10:51:48;13.60;;;8.23;;
32321;SDS011;61553;48.994;8.940;2023-12-07T10:54:06;13.88;;;8.95;;
32321;SDS011;61553;48.994;8.940;2023-12-07T10:56:40;13.18;;;9.20;;
32321;SDS011;61553;48.994;8.940;2023-12-07T10:59:09;13.80;;;9.23;;
32321;SDS011;61553;48.994;8.940;2023-12-07T11:01:39;15.73;;;9.05;;
32321;SDS011;61553;48.994;8.940;2023-12-07T11:04:06;15.73;;;9.73;;
32321;SDS011;61553;48.994;8.940;2023-12-07T11:06:35;18.75;;;9.60;;
32321;SDS011;61553;48.994;8.940;2023-12-07T11:09:02;18.52;;;9.80;;
32321;SDS011;61553;48.994;8.940;2023-12-07T11:15:01;17.70;;;9.77;;
32321;SDS011;61553;48.994;8.940;2023-12-07T11:17:28;19.45;;;10.50;;
32321;SDS011;61553;48.994;8.940;2023-12-07T11:19:53;18.52;;;11.07;;
32321;SDS011;61553;48.994;8.940;2023-12-07T11:22:19;18.30;;;10.85;;
32321;SDS011;61553;48.994;8.940;2023-12-07T11:24:51;19.48;;;10.95;;
32321;SDS011;61553;48.994;8.940;2023-12-07T11:27:18;20.90;;;12.63;;
32321;SDS011;61553;48.994;8.940;2023-12-07T11:29:45;19.60;;;11.60;;
32321;SDS011;61553;48.994;8.940;2023-12-07T11:32:13;21.98;;;12.60;;
32321;SDS011;61553;48.994;8.940;2023-12-07T11:34:40;23.02;;;14.30;;
32321;SDS011;61553;48.994;8.940;2023-12-07T11:37:07;25.27;;;14.32;;
32321;SDS011;61553;48.994;8.940;2023-12-07T11:39:40;21.38;;;12.38;;
32321;SDS011;61553;48.994;8.940;2023-12-07T11:42:14;20.65;;;12.82;;
32321;SDS011;61553;48.994;8.940;2023-12-07T11:44:41;19.13;;;12.52;;
32321;SDS011;61553;48.994;8.940;2023-12-07T11:47:09;19.73;;;11.55;;
32321;SDS011;61553;48.994;8.940;2023-12-07T11:49:41;22.88;;;12.60;;
32321;SDS011;61553;48.994;8.940;2023-12-07T11:54:44;20.60;;;13.07;;
32321;SDS011;61553;48.994;8.940;2023-12-07T11:57:13;22.55;;;12.95;;
32321;SDS011;61553;48.994;8.940;2023-12-07T11:59:41;21.70;;;12.85;;
32321;SDS011;61553;48.994;8.940;2023-12-07T12:02:07;55.42;;;30.98;;
32321;SDS011;61553;48.994;8.940;2023-12-07T12:04:32;19.83;;;11.52;;
32321;SDS011;61553;48.994;8.940;2023-12-07T12:06:58;17.98;;;10.10;;
32321;SDS011;61553;48.994;8.940;2023-12-07T12:09:24;21.13;;;11.23;;
32321;SDS011;61553;48.994;8.940;2023-12-07T12:11:50;18.95;;;12.48;;
32321;SDS011;61553;48.994;8.940;2023-12-07T12:14:16;21.25;;;15.50;;
32321;SDS011;61553;48.994;8.940;2023-12-07T12:16:42;21.67;;;16.73;;
32321;SDS011;61553;48.994;8.940;2023-12-07T12:19:09;20.52;;;15.65;;
32321;SDS011;61553;48.994;8.940;2023-12-07T12:21:36;19.45;;;10.43;;
32321;SDS011;61553;48.994;8.940;2023-12-07T12:24:05;14.98;;;9.07;;
32321;SDS011;61553;48.994;8.940;2023-12-07T12:26:34;15.18;;;8.98;;
32321;SDS011;61553;48.994;8.940;2023-12-07T12:29:05;13.80;;;8.68;;
32321;SDS011;61553;48.994;8.940;2023-12-07T12:31:32;14.50;;;8.90;;
32321;SDS011;61553;48.994;8.940;2023-12-07T12:33:57;14.05;;;8.10;;
32321;SDS011;61553;48.994;8.940;2023-12-07T12:36:30;13.75;;;7.90;;
32321;SDS011;61553;48.994;8.940;2023-12-07T12:38:56;20.13;;;12.52;;
32321;SDS011;61553;48.994;8.940;2023-12-07T12:41:22;15.02;;;9.32;;
32321;SDS011;61553;48.994;8.940;2023-12-07T12:43:48;15.88;;;7.25;;
32321;SDS011;61553;48.994;8.940;2023-12-07T12:46:15;18.00;;;8.65;;
32321;SDS011;61553;48.994;8.940;2023-12-07T12:51:19;15.77;;;7.95;;
32321;SDS011;61553;48.994;8.940;2023-12-07T12:53:46;11.90;;;7.40;;
32321;SDS011;61553;48.994;8.940;2023-12-07T12:56:12;10.88;;;6.85;;
32321;SDS011;61553;48.994;8.940;2023-12-07T12:58:38;13.32;;;7.40;;
32321;SDS011;61553;48.994;8.940;2023-12-07T13:01:04;12.05;;;6.63;;
32321;SDS011;61553;48.994;8.940;2023-12-07T13:03:31;12.35;;;6.22;;
32321;SDS011;61553;48.994;8.940;2023-12-07T13:05:57;11.85;;;7.07;;
32321;SDS011;61553;48.994;8.940;2023-12-07T13:08:23;12.63;;;6.53;;
32321;SDS011;61553;48.994;8.940;2023-12-07T13:10:49;12.68;;;6.18;;
32321;SDS011;61553;48.994;8.940;2023-12-07T13:13:15;14.20;;;6.07;;
32321;SDS011;61553;48.994;8.940;2023-12-07T13:15:41;12.88;;;6.95;;
32321;SDS011;61553;48.994;8.940;2023-12-07T13:18:07;11.25;;;6.88;;
32321;SDS011;61553;48.994;8.940;2023-12-07T13:20:33;12.07;;;6.38;;
32321;SDS011;61553;48.994;8.940;2023-12-07T13:23:00;11.40;;;7.05;;
32321;SDS011;61553;48.994;8.940;2023-12-07T13:25:26;17.10;;;7.50;;
32321;SDS011;61553;48.994;8.940;2023-12-07T13:27:51;13.50;;;7.43;;
32321;SDS011;61553;48.994;8.940;2023-12-07T13:30:17;14.57;;;7.30;;
32321;SDS011;61553;48.994;8.940;2023-12-07T13:32:43;12.82;;;7.35;;
32321;SDS011;61553;48.994;8.940;2023-12-07T13:35:09;14.60;;;6.80;;
32321;SDS011;61553;48.994;8.940;2023-12-07T13:37:34;14.43;;;7.10;;
32321;SDS011;61553;48.994;8.940;2023-12-07T13:40:01;12.70;;;6.75;;
32321;SDS011;61553;48.994;8.940;2023-12-07T13:42:29;15.93;;;8.43;;
32321;SDS011;61553;48.994;8.940;2023-12-07T13:44:56;12.27;;;6.70;;
32321;SDS011;61553;48.994;8.940;2023-12-07T13:47:26;12.70;;;7.82;;
32321;SDS011;61553;48.994;8.940;2023-12-07T13:50:01;14.50;;;8.05;;
32321;SDS011;61553;48.994;8.940;2023-12-07T13:52:28;16.30;;;7.05;;
32321;SDS011;61553;48.994;8.940;2023-12-07T13:54:54;9.88;;;5.95;;
32321;SDS011;61553;48.994;8.940;2023-12-07T13:57:20;12.32;;;7.20;;
32321;SDS011;61553;48.994;8.940;2023-12-07T13:59:49;12.32;;;6.50;;
32321;SDS011;61553;48.994;8.940;2023-12-07T14:02:15;13.00;;;6.90;;
32321;SDS011;61553;48.994;8.940;2023-12-07T14:04:41;10.82;;;6.78;;
32321;SDS011;61553;48.994;8.940;2023-12-07T14:07:13;13.50;;;7.55;;
32321;SDS011;61553;48.994;8.940;2023-12-07T14:09:40;13.40;;;7.53;;
32321;SDS011;61553;48.994;8.940;2023-12-07T14:12:07;14.35;;;7.28;;
32321;SDS011;61553;48.994;8.940;2023-12-07T14:14:35;10.55;;;6.47;;
32321;SDS011;61553;48.994;8.940;2023-12-07T14:17:01;15.00;;;7.63;;
32321;SDS011;61553;48.994;8.940;2023-12-07T14:19:26;18.48;;;8.45;;
32321;SDS011;61553;48.994;8.940;2023-12-07T14:21:53;11.82;;;6.85;;
32321;SDS011;61553;48.994;8.940;2023-12-07T14:24:19;22.40;;;9.73;;
32321;SDS011;61553;48.994;8.940;2023-12-07T14:26:45;17.52;;;8.90;;
32321;SDS011;61553;48.994;8.940;2023-12-07T14:29:10;21.40;;;11.20;;
32321;SDS011;61553;48.994;8.940;2023-12-07T14:31:40;11.40;;;6.93;;
32321;SDS011;61553;48.994;8.940;2023-12-07T14:34:13;10.85;;;6.13;;
32321;SDS011;61553;48.994;8.940;2023-12-07T14:36:39;12.32;;;6.82;;
32321;SDS011;61553;48.994;8.940;2023-12-07T14:39:08;11.52;;;6.35;;
32321;SDS011;61553;48.994;8.940;2023-12-07T14:41:34;10.95;;;5.85;;
32321;SDS011;61553;48.994;8.940;2023-12-07T14:44:01;12.07;;;6.43;;
32321;SDS011;61553;48.994;8.940;2023-12-07T14:46:27;13.98;;;7.53;;
32321;SDS011;61553;48.994;8.940;2023-12-07T14:48:52;14.05;;;7.90;;